ADDS TAF Board (Experimental) INFO Settings
IDs: Format: Expanded Condensed

KMIA - Miami Intl, FL, US

Issued at 0341 UTC 01 Sep 2016
Updated at 0534 UTC 01 Sep 2016
Time0453Z 01/06Z 01/07Z 01/08Z 01/09Z 01/10Z 01/11Z 01/12Z 01/13Z 01/14Z 01/15Z 01/16Z 01/17Z 01/18Z
Type OBS PRVL PRVL PRVL PRVL PRVL PRVL PRVL PRVL PRVL PRVL PRVL PRVL PRVL
VIS 10 >6 >6 >6 >6 >6 >6 >6 >6 >6 >6 >6 >6 >6
CIG 150 100 100 100 100 100 100 150 150 150 150 150 150 150
Cover OVC OVC OVC OVC OVC OVC OVC BKN BKN BKN BKN BKN BKN BKN
FltCat VFR VFR VFR VFR VFR VFR VFR VFR VFR VFR VFR VFR VFR VFR
WX -RA VCSH VCSH VCSH VCSH VCSH VCSH -- -- -- -- -- VCSH VCSH
WDir 230 160 160 160 160 160 160 170 170 170 170 170 170 170
WSpd 3 5 5 5 5 5 5 9 9 9 9 9 13 13
WGst -- -- -- -- -- -- -- -- -- -- -- -- -- --
R08/26
XWnd -2 -5 -5 -5 -5 -5 -5 -9 -9 -9 -9 -9 -13 -13
HWnd -2 1 1 1 1 1 1 1 1 1 1 1 2 2
R09/27
XWnd -2 -5 -5 -5 -5 -5 -5 -9 -9 -9 -9 -9 -13 -13
HWnd -2 1 1 1 1 1 1 1 1 1 1 1 2 2
R12/30
XWnd -3 -3 -3 -3 -3 -3 -3 -7 -7 -7 -7 -7 -10 -10
HWnd -1 4 4 4 4 4 4 6 6 6 6 6 8 8

Raw TAF
KMIA 010341Z 0104/0124 23010KT P6SM -TSRA SCT020CB BKN040 BKN100
  FM010500 16005KT P6SM VCSH SCT020 BKN100 OVC250
  FM011200 17009KT P6SM SCT035 BKN150
  FM011700 17013KT P6SM VCSH SCT035 BKN150


Raw METAR
KMIA 010453Z 23003KT 10SM -RA FEW050 SCT130 OVC150 24/23 A2997 RMK AO2 RAE0354B39 SLP149 P0000 T02440228 403060233 $
KMIA 010353Z 22005KT 10SM -RA FEW025 BKN045 BKN110 24/22 A2999 RMK AO2 RAE04B17 TSE52 SLP155 TS DSIPTD NW-NE P0023 T02440222 $
KMIA 010337Z 26004KT 7SM -TSRA SCT023CB BKN043 OVC095 24/22 A2999 RMK AO2 RAE04B17 OCNL LTGIC NW-NE MOV N TS NW-NE MOV N CB E-SE MOV N P0022 T02390222 $
KMIA 010327Z 15009G19KT 1 1/2SM R09/5500VP6000FT +TSRA BKN025CB BKN046 OVC065 23/22 A3000 RMK AO2 RAE04B17 OCNL LTGIC SW-W MOV N TS SW-W MOV N CB ALQDS MOV N P0015 T02330222 $
KMIA 010321Z 20013G19KT 2SM +TSRA BKN022CB BKN031 OVC055 24/22 A3001 RMK AO2 RAE04B17 OCNL LTGIC OHD-SW MOV N TS OHD-SW MOV N P0007 T02390222 $
KMIA 010314Z COR 21014G18KT 7SM TS BKN018CB BKN022 OVC100 25/23 A3000 RMK AO2 RAE04 OCNL LTGICCG S-SW MOV N TS S-SW MOV N P0004 T02500233 $
KMIA 010304Z 23008KT 7SM TS SCT022 BKN033 OVC100 25/23 A2999 RMK AO2 RAE04 OCNL LTGICCG N AND SW MOV N TS N AND SW MOV N P0004 T02500233 $
KMIA 010253Z 17010G39KT 3/4SM R09/2600VP6000FT +TSRA BR BKN013CB OVC036 26/23 A2999 RMK AO2 PK WND 21039/0245 RAB34 TSB53 SLP155 OCNL LTGICCG AT AP SW TS AT AP SW MOV N P0053 60053 T02560233 51023 $
KMIA 010251Z 14015G39KT 3/4SM R09/2600VP6000FT +RA BR BKN013CB OVC036 25/22 A2999 RMK AO2 PK WND 21039/0245 RAB34 CB OHD MOV N P0045 $
KMIA 010249Z 15007G39KT 100V220 3/4SM R09/2600VP6000FT +RA BR SCT015CB BKN021 OVC044 24/22 A2999
KMIA 010245Z 20027G39KT 2SM R09/2600VP6000FT +RA SCT015CB BKN021 OVC044 24/21 A3000 RMK AO2 PK WND 21039/0245 RAB34 CB OHD MOV N P0011 T02440211 $

METAR Board
Radar Display
Forecast Discussion

TAF Board Legend

Potential Impact
Threat None Slight Moderate High
Visibility (sm) ≥5.1 5.1>X≥3 3>X≥1 <1
Ceiling (100 ft) ≥30.1 30.1>X≥10 10>X≥5 <5
Wind Speed (kt) <10 10≤X<20 20≤X<30 ≥30
Wind Gust (kt) <15 15≤X<25 25≤X<35 ≥35
Weather No Wx Reported VCTS,-TS,-FZRA,SN TS,FZRA +TS,+FZRA,+SN